createdAt,value
2019-02-05T00:01:16.876Z,-3.80
2019-02-05T00:02:52.376Z,-3.80
2019-02-05T00:04:30.442Z,-3.80
2019-02-05T00:06:06.644Z,-3.70
2019-02-05T00:07:42.593Z,-3.80
2019-02-05T00:09:37.427Z,-3.80
2019-02-05T00:11:39.167Z,-3.80
2019-02-05T00:13:15.307Z,-3.80
2019-02-05T00:14:57.317Z,-3.70
2019-02-05T00:16:33.063Z,-3.50
2019-02-05T00:18:14.230Z,-3.60
2019-02-05T00:19:58.635Z,-3.60
2019-02-05T00:21:34.975Z,-3.60
2019-02-05T00:23:10.931Z,-3.60
2019-02-05T00:24:46.682Z,-3.60
2019-02-05T00:26:22.344Z,-3.60
2019-02-05T00:27:58.304Z,-3.50
2019-02-05T00:29:34.123Z,-3.50
2019-02-05T00:31:09.984Z,-3.50
2019-02-05T00:32:45.908Z,-3.50
2019-02-05T00:34:21.184Z,-3.50
2019-02-05T00:35:56.685Z,-3.40
2019-02-05T00:37:32.169Z,-3.40
2019-02-05T00:39:10.060Z,-3.30
2019-02-05T00:40:45.379Z,-3.30
2019-02-05T00:42:20.789Z,-3.30
2019-02-05T00:43:56.387Z,-3.30
2019-02-05T00:45:34.851Z,-3.20
2019-02-05T00:47:10.117Z,-3.20
2019-02-05T00:48:45.348Z,-3.20
2019-02-05T00:50:21.338Z,-3.20
2019-02-05T00:51:56.970Z,-3.20
2019-02-05T00:53:32.684Z,-3.20
2019-02-05T00:55:10.507Z,-3.20
2019-02-05T00:56:45.716Z,-3.10
2019-02-05T00:58:21.085Z,-3.20
2019-02-05T00:59:56.384Z,-3.20
2019-02-05T01:01:31.982Z,-3.20
2019-02-05T01:03:08.129Z,-3.10
2019-02-05T01:04:43.982Z,-3.10
2019-02-05T01:06:19.711Z,-3.10
2019-02-05T01:07:55.760Z,-3.20
2019-02-05T01:09:31.351Z,-3.20
2019-02-05T01:11:06.926Z,-3.20
2019-02-05T01:12:42.447Z,-3.20
2019-02-05T01:14:18.608Z,-3.20
2019-02-05T01:15:54.624Z,-3.20
2019-02-05T01:17:30.649Z,-3.30
2019-02-05T01:19:06.738Z,-3.30
2019-02-05T01:20:42.342Z,-3.30
2019-02-05T01:22:19.884Z,-3.40
2019-02-05T01:23:55.600Z,-3.40
2019-02-05T01:25:33.419Z,-3.40
2019-02-05T01:27:08.665Z,-3.30
2019-02-05T01:28:44.298Z,-3.30
2019-02-05T01:30:24.101Z,-3.30
2019-02-05T01:31:59.354Z,-3.30
2019-02-05T01:33:35.243Z,-3.30
2019-02-05T01:35:10.961Z,-3.40
2019-02-05T01:36:46.411Z,-3.30
2019-02-05T01:38:22.070Z,-3.40
2019-02-05T01:39:57.408Z,-3.40
2019-02-05T01:41:32.884Z,-3.50
2019-02-05T01:43:08.711Z,-3.50
2019-02-05T01:44:44.866Z,-3.60
2019-02-05T01:46:20.120Z,-3.70
2019-02-05T01:47:56.144Z,-3.80
2019-02-05T01:49:31.454Z,-3.90
2019-02-05T01:51:06.821Z,-3.90
2019-02-05T01:52:42.272Z,-3.90
2019-02-05T01:54:18.022Z,-3.90
2019-02-05T01:55:53.550Z,-3.90
2019-02-05T01:57:29.487Z,-3.80
2019-02-05T01:59:05.716Z,-3.60
2019-02-05T02:00:41.312Z,-3.50
2019-02-05T02:02:16.727Z,-3.40
2019-02-05T02:03:52.649Z,-3.30
2019-02-05T02:05:27.919Z,-3.30
2019-02-05T02:07:04.399Z,-3.30
2019-02-05T02:08:39.760Z,-3.30
2019-02-05T02:10:19.213Z,-3.20
2019-02-05T02:11:55.160Z,-3.20
2019-02-05T02:13:30.614Z,-3.10
2019-02-05T02:15:07.522Z,-3.10
2019-02-05T02:16:42.591Z,-3.00
2019-02-05T02:18:18.216Z,-3.00
2019-02-05T02:19:53.205Z,-2.90
2019-02-05T02:21:28.366Z,-2.90
2019-02-05T02:23:03.815Z,-2.90
2019-02-05T02:24:39.366Z,-2.90
2019-02-05T02:26:14.399Z,-2.90
2019-02-05T02:27:51.007Z,-2.90
2019-02-05T02:29:25.918Z,-3.00
2019-02-05T02:31:01.090Z,-3.00
2019-02-05T02:32:35.995Z,-3.10
2019-02-05T02:34:11.129Z,-3.10
2019-02-05T02:35:46.063Z,-3.10
2019-02-05T02:37:21.634Z,-3.10
2019-02-05T02:38:56.577Z,-3.00
2019-02-05T02:40:31.432Z,-3.10
2019-02-05T02:42:06.609Z,-3.10
2019-02-05T02:43:41.787Z,-3.10
2019-02-05T02:45:16.905Z,-3.10
2019-02-05T02:46:52.037Z,-3.10
2019-02-05T02:48:28.158Z,-3.10
2019-02-05T02:50:02.996Z,-3.10
2019-02-05T02:51:38.289Z,-3.10
2019-02-05T02:53:13.429Z,-3.10
2019-02-05T02:54:48.301Z,-3.00
2019-02-05T02:56:23.162Z,-3.10
2019-02-05T02:57:58.039Z,-3.10
2019-02-05T02:59:33.111Z,-3.10
2019-02-05T03:01:08.716Z,-3.20
2019-02-05T03:02:44.090Z,-3.30
2019-02-05T03:04:19.068Z,-3.30
2019-02-05T03:05:54.083Z,-3.40
2019-02-05T03:07:28.943Z,-3.30
2019-02-05T03:09:07.464Z,-3.30
2019-02-05T03:10:42.415Z,-3.30
2019-02-05T03:12:17.292Z,-3.30
2019-02-05T03:13:52.696Z,-3.30
2019-02-05T03:15:27.796Z,-3.10
2019-02-05T03:17:02.939Z,-3.00
2019-02-05T03:18:37.860Z,-3.00
2019-02-05T03:20:13.970Z,-2.90
2019-02-05T03:21:49.258Z,-2.80
2019-02-05T03:23:24.522Z,-2.80
2019-02-05T03:24:59.756Z,-2.90
2019-02-05T03:26:34.939Z,-3.00
2019-02-05T03:28:09.965Z,-3.00
2019-02-05T03:29:45.073Z,-3.00
2019-02-05T03:31:20.349Z,-3.10
2019-02-05T03:32:56.049Z,-3.20
2019-02-05T03:34:31.045Z,-3.30
2019-02-05T03:36:06.664Z,-3.30
2019-02-05T03:37:41.787Z,-3.30
2019-02-05T03:39:16.951Z,-3.40
2019-02-05T03:41:07.638Z,-3.50
2019-02-05T03:42:42.709Z,-3.70
2019-02-05T03:44:17.703Z,-3.80
2019-02-05T03:45:53.473Z,-3.80
2019-02-05T03:47:29.218Z,-3.90
2019-02-05T03:49:04.491Z,-3.90
2019-02-05T03:50:46.212Z,-3.80
2019-02-05T03:52:29.366Z,-3.80
2019-02-05T03:54:20.118Z,-3.80
2019-02-05T03:57:32.018Z,-3.90
2019-02-05T03:59:23.744Z,-4.00
2019-02-05T04:01:53.635Z,-4.20
2019-02-05T04:06:27.701Z,-4.20
2019-02-05T04:08:50.148Z,-4.30
2019-02-05T04:11:18.568Z,-4.30
2019-02-05T04:13:30.669Z,-4.20
2019-02-05T04:15:36.751Z,-4.30
2019-02-05T04:17:46.003Z,-4.40
2019-02-05T04:24:31.359Z,-4.60
2019-02-05T04:26:51.112Z,-5.00
2019-02-05T04:29:05.622Z,-4.80
2019-02-05T05:25:45.185Z,-5.00
2019-02-05T05:44:44.508Z,-6.70
2019-02-05T05:54:12.675Z,-7.10
2019-02-05T05:55:47.913Z,-7.10
2019-02-05T05:57:22.995Z,-7.20
2019-02-05T05:58:58.363Z,-7.20
2019-02-05T06:00:33.486Z,-7.20
2019-02-05T06:02:08.651Z,-7.30
2019-02-05T06:03:43.495Z,-7.30
2019-02-05T06:05:20.488Z,-7.30
2019-02-05T06:06:55.872Z,-7.30
2019-02-05T06:08:31.184Z,-7.30
2019-02-05T06:10:07.937Z,-7.30
2019-02-05T06:11:42.842Z,-7.20
2019-02-05T06:13:17.920Z,-7.20
2019-02-05T06:14:52.738Z,-7.20
2019-02-05T06:16:27.928Z,-7.30
2019-02-05T06:18:02.865Z,-7.30
2019-02-05T06:19:39.809Z,-7.30
2019-02-05T06:21:14.625Z,-7.40
2019-02-05T06:22:49.531Z,-7.30
2019-02-05T06:24:24.532Z,-7.30
2019-02-05T06:25:59.375Z,-7.20
2019-02-05T06:27:34.453Z,-7.20
2019-02-05T06:29:09.388Z,-7.20
2019-02-05T06:30:44.265Z,-7.10
2019-02-05T06:32:19.766Z,-6.90
2019-02-05T06:33:54.864Z,-7.00
2019-02-05T06:35:29.824Z,-7.00
2019-02-05T06:37:04.773Z,-7.00
2019-02-05T06:38:39.950Z,-7.10
2019-02-05T06:40:18.497Z,-7.20
2019-02-05T06:41:53.399Z,-7.20
2019-02-05T06:43:28.781Z,-7.10
2019-02-05T06:45:04.951Z,-7.10
2019-02-05T06:46:39.788Z,-7.00
2019-02-05T06:48:14.711Z,-6.90
2019-02-05T06:49:49.878Z,-6.90
2019-02-05T06:51:24.685Z,-6.90
2019-02-05T06:52:59.591Z,-6.80
2019-02-05T06:54:34.738Z,-6.80
2019-02-05T06:56:09.864Z,-6.90
2019-02-05T06:57:45.448Z,-7.00
2019-02-05T06:59:20.287Z,-7.00
2019-02-05T07:00:55.202Z,-7.10
2019-02-05T07:02:30.345Z,-7.20
2019-02-05T07:04:06.164Z,-7.20
2019-02-05T07:05:40.977Z,-7.30
2019-02-05T07:07:16.121Z,-7.20
2019-02-05T07:08:50.984Z,-7.20
2019-02-05T07:10:26.767Z,-6.90
2019-02-05T07:12:02.190Z,-6.90
2019-02-05T07:13:37.442Z,-6.60
2019-02-05T07:15:13.232Z,-6.20
2019-02-05T07:16:48.335Z,-5.70
2019-02-05T07:18:23.233Z,-5.50
2019-02-05T07:19:58.347Z,-5.40
2019-02-05T07:21:33.191Z,-5.30
2019-02-05T07:23:08.544Z,-5.20
2019-02-05T07:24:43.360Z,-5.00
2019-02-05T07:26:18.254Z,-4.80
2019-02-05T07:27:53.371Z,-4.70
2019-02-05T07:29:28.163Z,-4.50
2019-02-05T07:31:04.673Z,-4.40
2019-02-05T07:32:39.752Z,-4.30
2019-02-05T07:34:14.861Z,-4.20
2019-02-05T07:38:59.308Z,-4.10
2019-02-05T07:40:34.749Z,-3.30
2019-02-05T07:42:09.831Z,-3.10
2019-02-05T07:43:44.641Z,-3.00
2019-02-05T07:50:08.962Z,-2.80
2019-02-05T07:53:19.565Z,-2.90
2019-02-05T07:59:38.549Z,-2.20
2019-02-05T08:10:46.081Z,-0.90
2019-02-05T08:12:22.656Z,-0.20
2019-02-05T08:13:57.435Z,-0.30
2019-02-05T08:15:33.839Z,-0.40
2019-02-05T08:17:27.558Z,-0.50
2019-02-05T08:18:50.471Z,-0.80
2019-02-05T08:20:25.517Z,-0.90
2019-02-05T08:22:00.428Z,-0.90
2019-02-05T08:23:35.307Z,-0.70
2019-02-05T08:25:12.453Z,-0.50
2019-02-05T08:31:31.392Z,-0.20
2019-02-05T08:33:06.437Z,1.00
2019-02-05T08:34:43.489Z,0.80
2019-02-05T08:36:18.534Z,1.00
2019-02-05T08:37:53.403Z,0.90
2019-02-05T08:39:28.687Z,0.80
2019-02-05T08:41:04.029Z,0.60
2019-02-05T08:42:38.816Z,0.30
2019-02-05T10:48:30.754Z,0.10
2019-02-05T10:50:08.648Z,2.20
2019-02-05T10:51:43.720Z,2.00
2019-02-05T10:53:18.883Z,1.80
2019-02-05T10:54:54.338Z,1.90
2019-02-05T10:56:29.330Z,1.90
2019-02-05T10:58:04.974Z,1.90
2019-02-05T10:59:39.787Z,1.70
2019-02-05T11:01:14.671Z,1.70
2019-02-05T11:02:49.978Z,1.70
2019-02-05T11:04:24.843Z,1.80
2019-02-05T11:05:59.635Z,1.80
2019-02-05T11:07:34.453Z,1.80
2019-02-05T11:09:11.570Z,1.70
2019-02-05T11:10:46.475Z,1.90
2019-02-05T11:12:21.432Z,1.80
2019-02-05T11:13:56.339Z,1.60
2019-02-05T11:15:33.201Z,1.60
2019-02-05T11:17:08.161Z,1.50
2019-02-05T11:18:43.110Z,1.50
2019-02-05T11:20:21.517Z,1.60
2019-02-05T11:21:56.588Z,1.60
2019-02-05T11:23:31.657Z,1.50
2019-02-05T11:25:07.557Z,1.50
2019-02-05T11:26:42.717Z,1.50
2019-02-05T11:28:17.800Z,1.60
2019-02-05T11:29:52.586Z,1.60
2019-02-05T11:31:27.498Z,1.60
2019-02-05T11:33:02.671Z,1.60
2019-02-05T11:34:37.919Z,1.60
2019-02-05T11:36:13.210Z,1.70
2019-02-05T11:37:48.199Z,1.70
2019-02-05T11:39:23.070Z,1.80
2019-02-05T11:40:58.229Z,1.80
2019-02-05T11:42:33.018Z,1.90
2019-02-05T11:44:08.095Z,2.00
2019-02-05T11:45:42.979Z,2.10
2019-02-05T11:47:18.763Z,1.80
2019-02-05T11:48:54.108Z,1.80
2019-02-05T11:50:28.995Z,1.80
2019-02-05T11:52:04.085Z,1.80
2019-02-05T11:53:41.317Z,1.80
2019-02-05T11:55:18.695Z,1.80
2019-02-05T11:56:53.515Z,1.80
2019-02-05T11:58:28.327Z,1.90
2019-02-05T12:00:03.870Z,1.90
2019-02-05T12:01:40.626Z,1.80
2019-02-05T12:03:16.682Z,1.80
2019-02-05T12:04:52.126Z,1.80
2019-02-05T12:06:28.010Z,1.80
2019-02-05T12:08:03.389Z,1.70
2019-02-05T12:09:38.682Z,1.70
2019-02-05T12:11:13.557Z,1.70
2019-02-05T12:12:48.628Z,1.60
2019-02-05T12:14:23.662Z,1.60
2019-02-05T12:15:58.897Z,1.70
2019-02-05T12:17:33.678Z,1.70
2019-02-05T12:19:08.733Z,1.70
2019-02-05T12:20:43.589Z,1.80
2019-02-05T12:22:18.760Z,1.80
2019-02-05T12:23:53.743Z,2.00
2019-02-05T12:25:29.537Z,2.00
2019-02-05T12:27:05.450Z,1.90
2019-02-05T12:28:40.608Z,1.90
2019-02-05T12:30:26.694Z,1.90
2019-02-05T12:32:01.739Z,1.80
2019-02-05T12:33:36.535Z,1.80
2019-02-05T12:35:12.119Z,1.80
2019-02-05T12:36:47.568Z,1.80
2019-02-05T12:38:22.717Z,1.70
2019-02-05T12:39:57.500Z,1.80
2019-02-05T12:41:32.622Z,1.80
2019-02-05T12:43:07.969Z,1.80
2019-02-05T12:44:42.749Z,1.90
2019-02-05T12:46:17.522Z,1.90
2019-02-05T12:47:52.519Z,1.90
2019-02-05T12:49:27.582Z,1.90
2019-02-05T12:51:03.074Z,1.80
2019-02-05T12:52:37.854Z,1.80
2019-02-05T12:54:12.864Z,1.80
2019-02-05T12:55:47.741Z,1.80
2019-02-05T12:57:22.789Z,1.90
2019-02-05T12:58:57.835Z,1.90
2019-02-05T13:00:42.534Z,2.00
2019-02-05T13:02:17.405Z,2.00
2019-02-05T13:03:52.449Z,2.00
2019-02-05T13:05:27.555Z,2.00
2019-02-05T13:07:02.417Z,2.00
2019-02-05T13:08:37.721Z,2.00
2019-02-05T13:10:15.136Z,2.00
2019-02-05T13:11:50.182Z,2.00
2019-02-05T13:13:25.245Z,2.10
2019-02-05T13:15:00.038Z,2.10
2019-02-05T13:16:35.138Z,2.20
2019-02-05T13:18:10.194Z,2.10
2019-02-05T13:19:45.707Z,2.00
2019-02-05T13:21:20.495Z,2.10
2019-02-05T13:22:55.310Z,2.10
2019-02-05T13:24:30.082Z,2.10
2019-02-05T13:26:05.778Z,2.10
2019-02-05T13:27:40.569Z,2.10
2019-02-05T13:29:15.362Z,2.10
2019-02-05T13:30:50.395Z,2.00
2019-02-05T13:32:25.255Z,2.00
2019-02-05T13:34:00.138Z,2.00
2019-02-05T13:35:35.325Z,2.00
2019-02-05T13:37:10.116Z,2.00
2019-02-05T13:38:44.900Z,1.90
2019-02-05T13:40:23.020Z,1.80
2019-02-05T13:41:57.852Z,1.80
2019-02-05T13:43:32.667Z,1.80
2019-02-05T13:45:08.764Z,1.80
2019-02-05T13:46:43.681Z,1.90
2019-02-05T13:48:18.470Z,1.80
2019-02-05T13:49:53.342Z,1.80
2019-02-05T13:51:28.116Z,1.80
2019-02-05T13:53:03.380Z,1.90
2019-02-05T13:54:38.488Z,1.90
2019-02-05T13:56:13.930Z,1.90
2019-02-05T13:57:49.043Z,2.00
2019-02-05T13:59:23.873Z,1.90
2019-02-05T14:00:58.812Z,1.90
2019-02-05T14:02:33.601Z,1.90
2019-02-05T14:04:08.646Z,1.80
2019-02-05T14:05:44.015Z,1.80
2019-02-05T14:07:19.051Z,1.80
2019-02-05T14:08:53.849Z,1.80
2019-02-05T14:10:31.679Z,1.80
2019-02-05T14:12:06.723Z,1.80
2019-02-05T14:13:41.965Z,1.80
2019-02-05T14:15:19.465Z,1.90
2019-02-05T14:16:54.645Z,1.90
2019-02-05T14:18:29.770Z,2.00
2019-02-05T14:20:07.077Z,2.00
2019-02-05T14:21:41.858Z,2.00
2019-02-05T14:23:17.379Z,2.00
2019-02-05T14:24:52.175Z,2.00
2019-02-05T14:26:27.674Z,2.00
2019-02-05T14:28:02.599Z,1.90
2019-02-05T14:29:37.384Z,1.80
2019-02-05T14:31:12.248Z,1.90
2019-02-05T14:32:47.055Z,1.80
2019-02-05T14:34:21.839Z,1.80
2019-02-05T14:35:56.690Z,1.80
2019-02-05T14:37:31.472Z,1.90
2019-02-05T14:39:10.359Z,1.90
2019-02-05T14:40:46.017Z,1.80
2019-02-05T14:42:21.040Z,1.80
2019-02-05T14:43:55.919Z,1.70
2019-02-05T14:45:30.714Z,1.70
2019-02-05T14:47:06.519Z,1.70
2019-02-05T14:48:41.374Z,1.70
2019-02-05T14:50:21.413Z,1.70
2019-02-05T14:51:57.849Z,1.60
2019-02-05T14:53:32.875Z,1.60
2019-02-05T14:55:08.207Z,1.60
2019-02-05T14:56:43.001Z,1.60
2019-02-05T14:58:18.744Z,1.50
2019-02-05T14:59:53.814Z,1.50
2019-02-05T15:01:28.927Z,1.50
2019-02-05T15:03:07.042Z,1.50
2019-02-05T15:04:41.860Z,1.50
2019-02-05T15:06:17.176Z,1.50
2019-02-05T15:07:52.460Z,1.50
2019-02-05T15:09:27.752Z,1.50
2019-02-05T15:11:02.766Z,1.50
2019-02-05T15:12:37.656Z,1.50
2019-02-05T15:14:12.684Z,1.60
2019-02-05T15:15:48.033Z,1.60
2019-02-05T15:17:23.144Z,1.70
2019-02-05T15:18:58.685Z,1.80
2019-02-05T15:20:40.842Z,1.70
2019-02-05T15:22:15.869Z,1.70
2019-02-05T15:23:51.051Z,1.80
2019-02-05T15:25:26.381Z,1.70
2019-02-05T15:27:01.107Z,1.70
2019-02-05T15:28:36.308Z,1.60
2019-02-05T15:30:17.446Z,1.50
2019-02-05T15:31:54.754Z,1.50
2019-02-05T15:33:51.962Z,1.50
2019-02-05T15:35:27.335Z,1.40
2019-02-05T15:37:02.129Z,1.40
2019-02-05T15:38:37.312Z,1.30
2019-02-05T15:40:13.764Z,1.30
2019-02-05T15:41:48.816Z,1.30
2019-02-05T15:43:24.165Z,1.30
2019-02-05T15:44:58.992Z,1.30
2019-02-05T15:46:34.510Z,1.30
2019-02-05T15:48:09.635Z,1.20
2019-02-05T15:49:44.419Z,1.20
